Time;durP1;ratioP1;P1;durP2;ratioP2;P2;SDS_P1;SDS_P2;PMS_P1;PMS_P2;Temp;Humidity;BMP_temperature;BMP_pressure;BME280_temperature;BME280_humidity;BME280_pressure;Samples;Min_cycle;Max_cycle;Signal;HPM_P1;HPM_P2
2023/03/17 00:00:04;;;;;;;7.55;4.43;;;;;;;;;;1043891;28;20147;-23
2023/03/17 00:00:36;;;;;;;3.78;3.25;;;;;;;;;;1043502;28;20119;-21
2023/03/17 00:01:08;;;;;;;8.38;5.25;;;;;;;;;;1043946;28;20031;-21
2023/03/17 00:01:39;;;;;;;10.13;4.40;;;;;;;;;;1042553;28;20475;-21
2023/03/17 00:02:09;;;;;;;8.63;4.68;;;;;;;;;;1043762;28;20111;-21
2023/03/17 00:02:41;;;;;;;4.13;3.72;;;;;;;;;;1043471;28;20481;-22
2023/03/17 00:03:17;;;;;;;3.55;2.35;;;;;;;;;;1044056;28;20025;-21
2023/03/17 00:03:49;;;;;;;5.93;3.78;;;;;;;;;;1043170;28;20032;-21
2023/03/17 00:04:20;;;;;;;4.47;2.33;;;;;;;;;;1043918;28;20358;-21
2023/03/17 00:04:51;;;;;;;4.78;3.75;;;;;;;;;;1043422;28;20078;-21
2023/03/17 00:05:22;;;;;;;6.95;3.28;;;;;;;;;;1043760;28;20531;-21
2023/03/17 00:05:53;;;;;;;8.95;3.55;;;;;;;;;;1043764;28;20038;-22
2023/03/17 00:06:32;;;;;;;8.05;3.95;;;;;;;;;;1042539;28;20028;-23
2023/03/17 00:07:04;;;;;;;7.88;3.85;;;;;;;;;;1043280;28;20046;-21
2023/03/17 00:07:35;;;;;;;8.15;4.38;;;;;;;;;;1043434;28;20140;-22
2023/03/17 00:08:35;;;;;;;6.95;4.18;;;;;;;;;;1043586;28;20031;-21
2023/03/17 00:09:09;;;;;;;11.15;3.67;;;;;;;;;;1043079;28;20028;-21
2023/03/17 00:09:40;;;;;;;9.90;4.85;;;;;;;;;;1042663;28;20045;-21
2023/03/17 00:10:16;;;;;;;11.63;4.70;;;;;;;;;;1043950;28;20533;-21
2023/03/17 00:10:47;;;;;;;9.90;3.80;;;;;;;;;;1043162;28;20067;-21
2023/03/17 00:11:20;;;;;;;12.20;3.80;;;;;;;;;;1043884;28;20154;-21
2023/03/17 00:11:50;;;;;;;9.77;4.00;;;;;;;;;;1042669;28;20083;-21
2023/03/17 00:12:20;;;;;;;11.77;2.95;;;;;;;;;;1043737;28;20063;-21
2023/03/17 00:12:52;;;;;;;3.72;2.83;;;;;;;;;;1043668;28;20029;-21
2023/03/17 00:13:23;;;;;;;4.55;3.05;;;;;;;;;;1043799;28;20445;-21
2023/03/17 00:13:53;;;;;;;4.13;3.28;;;;;;;;;;1043537;28;20047;-21
2023/03/17 00:14:24;;;;;;;4.43;3.13;;;;;;;;;;1043690;28;20078;-21
2023/03/17 00:14:55;;;;;;;5.43;3.60;;;;;;;;;;1043975;28;20021;-21
2023/03/17 00:15:26;;;;;;;3.72;3.25;;;;;;;;;;1043676;28;20032;-21
2023/03/17 00:16:00;;;;;;;7.93;3.50;;;;;;;;;;1043874;28;20498;-21
2023/03/17 00:16:33;;;;;;;9.35;5.28;;;;;;;;;;1043596;28;20032;-21
2023/03/17 00:17:04;;;;;;;11.10;4.50;;;;;;;;;;1043937;28;20078;-21
2023/03/17 00:17:35;;;;;;;8.65;3.00;;;;;;;;;;1043489;28;20447;-21
2023/03/17 00:18:09;;;;;;;10.20;4.00;;;;;;;;;;1042954;28;20040;-21
2023/03/17 00:18:40;;;;;;;10.43;3.63;;;;;;;;;;1042535;28;20056;-21
2023/03/17 00:19:15;;;;;;;7.13;3.38;;;;;;;;;;1043586;28;20025;-21
2023/03/17 00:19:46;;;;;;;11.50;4.10;;;;;;;;;;1043254;28;20508;-21
2023/03/17 00:20:21;;;;;;;5.22;3.10;;;;;;;;;;1042705;28;20025;-21
2023/03/17 00:20:52;;;;;;;5.82;3.45;;;;;;;;;;1043288;28;20245;-21
2023/03/17 00:21:34;;;;;;;13.23;4.93;;;;;;;;;;1042687;28;20483;-21
2023/03/17 00:22:08;;;;;;;7.80;4.25;;;;;;;;;;1043330;28;20052;-21
2023/03/17 00:22:39;;;;;;;7.20;2.92;;;;;;;;;;1043426;28;20025;-21
2023/03/17 00:23:15;;;;;;;8.45;3.95;;;;;;;;;;1043785;28;20988;-21
2023/03/17 00:23:48;;;;;;;11.38;4.00;;;;;;;;;;1043373;28;20025;-21
2023/03/17 00:24:18;;;;;;;9.20;3.47;;;;;;;;;;1043420;28;20021;-21
2023/03/17 00:24:50;;;;;;;6.53;3.38;;;;;;;;;;1043702;28;20029;-22
2023/03/17 00:25:26;;;;;;;5.55;3.03;;;;;;;;;;1043751;28;20028;-21
2023/03/17 00:25:56;;;;;;;6.32;3.70;;;;;;;;;;1042968;28;20033;-21
2023/03/17 00:26:27;;;;;;;6.22;3.28;;;;;;;;;;1043614;28;20083;-21
2023/03/17 00:26:58;;;;;;;4.07;3.10;;;;;;;;;;1043969;28;20107;-21
2023/03/17 00:27:29;;;;;;;12.50;6.63;;;;;;;;;;1042323;28;20017;-22
2023/03/17 00:28:00;;;;;;;6.55;3.70;;;;;;;;;;1043729;28;20036;-23
2023/03/17 00:28:31;;;;;;;6.78;3.30;;;;;;;;;;1043490;28;20116;-21
2023/03/17 00:29:01;;;;;;;6.28;2.78;;;;;;;;;;1043937;28;20029;-21
2023/03/17 00:29:32;;;;;;;5.22;2.78;;;;;;;;;;1043413;28;20119;-21
2023/03/17 00:30:02;;;;;;;5.97;3.85;;;;;;;;;;1043724;28;20461;-21
2023/03/17 00:30:33;;;;;;;7.05;4.93;;;;;;;;;;1043464;28;20048;-21
2023/03/17 00:31:12;;;;;;;10.60;4.90;;;;;;;;;;1043942;28;20036;-21
2023/03/17 00:31:44;;;;;;;6.18;3.88;;;;;;;;;;1043347;28;20556;-21
2023/03/17 00:32:16;;;;;;;8.63;5.15;;;;;;;;;;1043839;28;20035;-21
2023/03/17 00:32:48;;;;;;;4.80;3.03;;;;;;;;;;1043122;28;20408;-21
2023/03/17 00:33:19;;;;;;;8.73;6.03;;;;;;;;;;1043877;28;20108;-21
2023/03/17 00:33:51;;;;;;;10.52;5.05;;;;;;;;;;1043394;28;20079;-21
2023/03/17 00:34:22;;;;;;;15.95;4.65;;;;;;;;;;1043614;28;20035;-21
2023/03/17 00:34:52;;;;;;;7.47;5.05;;;;;;;;;;1043818;28;20111;-21
2023/03/17 00:35:25;;;;;;;8.05;5.07;;;;;;;;;;1043633;28;20052;-21
2023/03/17 00:35:56;;;;;;;33.30;4.68;;;;;;;;;;1043127;28;20021;-21
2023/03/17 00:36:28;;;;;;;10.77;6.45;;;;;;;;;;1043701;28;20560;-21
2023/03/17 00:36:59;;;;;;;8.68;6.43;;;;;;;;;;1042745;28;20021;-21
2023/03/17 00:37:30;;;;;;;14.80;5.15;;;;;;;;;;1043409;28;20020;-21
2023/03/17 00:38:00;;;;;;;11.45;4.93;;;;;;;;;;1043792;28;20021;-21
2023/03/17 00:38:31;;;;;;;15.48;5.60;;;;;;;;;;1043637;28;20060;-21
2023/03/17 00:39:02;;;;;;;22.58;4.65;;;;;;;;;;1043761;28;20396;-21
2023/03/17 00:39:32;;;;;;;9.55;5.10;;;;;;;;;;1043432;28;20115;-21
2023/03/17 00:40:07;;;;;;;7.80;3.85;;;;;;;;;;1042613;28;20029;-21
2023/03/17 00:40:38;;;;;;;14.60;8.05;;;;;;;;;;1043725;28;20032;-25
2023/03/17 00:41:08;;;;;;;7.25;3.97;;;;;;;;;;1042957;28;20117;-21
2023/03/17 00:41:39;;;;;;;13.93;5.38;;;;;;;;;;1043319;28;20029;-25
2023/03/17 00:42:09;;;;;;;11.90;5.03;;;;;;;;;;1043696;28;20021;-21
2023/03/17 00:42:40;;;;;;;21.27;5.85;;;;;;;;;;1043536;28;20088;-21
2023/03/17 00:43:11;;;;;;;12.35;3.95;;;;;;;;;;1043850;28;20472;-21
2023/03/17 00:43:42;;;;;;;6.53;3.47;;;;;;;;;;1043341;28;20403;-21
2023/03/17 00:44:13;;;;;;;10.80;5.63;;;;;;;;;;1043717;28;20021;-21
2023/03/17 00:44:45;;;;;;;7.82;4.93;;;;;;;;;;1043627;28;20674;-21
2023/03/17 00:45:16;;;;;;;15.27;5.43;;;;;;;;;;1043648;28;20074;-21
2023/03/17 00:45:47;;;;;;;16.92;5.38;;;;;;;;;;1043133;28;20078;-21
2023/03/17 00:46:20;;;;;;;13.30;5.45;;;;;;;;;;1042694;28;20059;-21
2023/03/17 00:46:52;;;;;;;10.38;5.93;;;;;;;;;;1043592;28;20021;-21
2023/03/17 00:47:22;;;;;;;12.30;6.95;;;;;;;;;;1043652;28;20017;-21
2023/03/17 00:47:56;;;;;;;11.57;5.10;;;;;;;;;;1042311;28;20556;-21
2023/03/17 00:48:28;;;;;;;16.67;4.20;;;;;;;;;;1043286;28;20029;-21
2023/03/17 00:48:59;;;;;;;6.97;5.00;;;;;;;;;;1043812;28;20032;-21
2023/03/17 00:49:29;;;;;;;8.40;4.60;;;;;;;;;;1043473;28;20032;-21
2023/03/17 00:50:00;;;;;;;8.60;4.93;;;;;;;;;;1043609;28;20029;-21
2023/03/17 00:50:30;;;;;;;13.32;4.80;;;;;;;;;;1043444;28;20025;-21
2023/03/17 00:51:01;;;;;;;11.27;5.63;;;;;;;;;;1043790;28;20025;-21
2023/03/17 00:51:31;;;;;;;10.55;4.47;;;;;;;;;;1043454;28;20032;-22
2023/03/17 00:52:02;;;;;;;10.70;3.20;;;;;;;;;;1043330;28;20058;-21
2023/03/17 00:52:32;;;;;;;7.38;5.20;;;;;;;;;;1043145;28;20056;-21
2023/03/17 00:53:05;;;;;;;10.52;4.55;;;;;;;;;;1043803;28;20090;-21
2023/03/17 00:53:36;;;;;;;12.45;6.22;;;;;;;;;;1043123;28;20064;-22
2023/03/17 00:54:08;;;;;;;8.38;6.38;;;;;;;;;;1043670;28;20392;-21
2023/03/17 00:54:38;;;;;;;16.73;5.78;;;;;;;;;;1042364;28;20029;-21
2023/03/17 00:55:09;;;;;;;11.40;5.07;;;;;;;;;;1042862;28;20067;-21
2023/03/17 00:55:40;;;;;;;29.40;5.70;;;;;;;;;;1042209;28;20036;-21
2023/03/17 00:56:13;;;;;;;7.22;3.60;;;;;;;;;;1043670;28;20182;-21
2023/03/17 00:56:44;;;;;;;8.23;3.83;;;;;;;;;;1042602;28;20029;-21
2023/03/17 00:57:14;;;;;;;9.73;4.50;;;;;;;;;;1043055;28;20029;-21
2023/03/17 00:57:46;;;;;;;17.95;5.13;;;;;;;;;;1043169;28;20509;-21
2023/03/17 00:58:27;;;;;;;7.35;4.65;;;;;;;;;;1042298;28;20083;-21
2023/03/17 00:58:58;;;;;;;8.63;4.35;;;;;;;;;;1043443;28;20063;-21
2023/03/17 00:59:30;;;;;;;10.50;4.60;;;;;;;;;;1043405;28;20387;-21
2023/03/17 01:00:02;;;;;;;12.00;6.38;;;;;;;;;;1042756;28;20029;-21
2023/03/17 01:00:32;;;;;;;24.88;4.40;;;;;;;;;;1042894;28;20031;-21
2023/03/17 01:01:02;;;;;;;6.28;3.78;;;;;;;;;;1042888;28;20047;-21
2023/03/17 01:01:33;;;;;;;8.02;4.68;;;;;;;;;;1043068;28;20108;-21
2023/03/17 01:02:04;;;;;;;7.18;4.13;;;;;;;;;;1043178;28;20083;-21
2023/03/17 01:02:35;;;;;;;8.52;5.65;;;;;;;;;;1042663;28;20032;-21
2023/03/17 01:03:08;;;;;;;9.60;5.40;;;;;;;;;;1043373;28;20124;-21
2023/03/17 01:03:39;;;;;;;12.82;5.85;;;;;;;;;;1043183;28;20028;-21
2023/03/17 01:04:09;;;;;;;19.55;6.70;;;;;;;;;;1042992;28;20556;-21
2023/03/17 01:04:41;;;;;;;14.32;4.53;;;;;;;;;;1042904;28;20032;-21
2023/03/17 01:05:12;;;;;;;13.27;6.43;;;;;;;;;;1042780;28;20400;-21
2023/03/17 01:05:42;;;;;;;16.77;6.15;;;;;;;;;;1042953;28;20614;-21
2023/03/17 01:06:13;;;;;;;14.95;7.40;;;;;;;;;;1042944;28;20124;-22
2023/03/17 01:06:45;;;;;;;19.15;7.30;;;;;;;;;;1042145;28;20027;-21
2023/03/17 01:07:16;;;;;;;22.02;9.23;;;;;;;;;;1042865;28;20075;-21
2023/03/17 01:07:51;;;;;;;21.35;6.40;;;;;;;;;;1042797;28;20067;-22
2023/03/17 01:08:22;;;;;;;14.10;6.50;;;;;;;;;;1043469;28;20116;-21
2023/03/17 01:08:54;;;;;;;17.95;7.72;;;;;;;;;;1042516;28;20498;-21
2023/03/17 01:09:25;;;;;;;18.63;7.32;;;;;;;;;;1043459;28;20639;-21
2023/03/17 01:09:56;;;;;;;22.98;7.22;;;;;;;;;;1043592;28;20107;-21
2023/03/17 01:10:27;;;;;;;19.85;9.02;;;;;;;;;;1043277;28;20024;-21
2023/03/17 01:10:58;;;;;;;13.70;6.57;;;;;;;;;;1043671;28;20033;-21
2023/03/17 01:11:28;;;;;;;35.05;10.20;;;;;;;;;;1043493;28;20025;-21
2023/03/17 01:11:59;;;;;;;30.73;8.05;;;;;;;;;;1043429;28;20464;-22
2023/03/17 01:12:29;;;;;;;24.90;7.90;;;;;;;;;;1043159;28;20043;-21
2023/03/17 01:13:00;;;;;;;15.43;8.00;;;;;;;;;;1043808;28;20108;-21
2023/03/17 01:13:31;;;;;;;18.83;7.30;;;;;;;;;;1042823;28;20025;-21
2023/03/17 01:14:02;;;;;;;18.52;6.07;;;;;;;;;;1042232;28;20032;-21
2023/03/17 01:14:32;;;;;;;9.32;4.68;;;;;;;;;;1042284;28;20013;-21
2023/03/17 01:15:03;;;;;;;16.48;6.13;;;;;;;;;;1044232;28;20079;-21
2023/03/17 01:15:34;;;;;;;22.02;7.80;;;;;;;;;;1043065;28;20024;-21
2023/03/17 01:16:08;;;;;;;17.10;6.03;;;;;;;;;;1044359;28;20487;-21
2023/03/17 01:16:39;;;;;;;11.75;6.97;;;;;;;;;;1043082;28;20021;-21
2023/03/17 01:17:14;;;;;;;22.67;7.93;;;;;;;;;;1044593;28;20033;-21
2023/03/17 01:17:44;;;;;;;30.13;6.72;;;;;;;;;;1043790;28;20021;-21
2023/03/17 01:18:16;;;;;;;11.50;5.82;;;;;;;;;;1044303;28;20395;-21
2023/03/17 01:18:47;;;;;;;12.52;5.88;;;;;;;;;;1043739;28;20028;-21
2023/03/17 01:19:17;;;;;;;8.98;5.35;;;;;;;;;;1041671;28;20021;-21
2023/03/17 01:19:48;;;;;;;15.60;6.22;;;;;;;;;;1043846;28;20052;-21
2023/03/17 01:20:21;;;;;;;13.15;5.32;;;;;;;;;;1043727;28;20028;-22
2023/03/17 01:20:52;;;;;;;11.07;6.60;;;;;;;;;;1042487;28;20025;-22
2023/03/17 01:21:22;;;;;;;13.43;8.50;;;;;;;;;;1040589;28;20025;-23
2023/03/17 01:21:53;;;;;;;20.17;9.15;;;;;;;;;;1041770;28;20025;-22
2023/03/17 01:22:24;;;;;;;12.95;6.30;;;;;;;;;;1043337;28;20047;-21
2023/03/17 01:22:54;;;;;;;11.90;5.55;;;;;;;;;;1042731;28;20024;-22
2023/03/17 01:23:25;;;;;;;10.90;7.15;;;;;;;;;;1042721;28;20020;-21
2023/03/17 01:23:55;;;;;;;19.98;5.90;;;;;;;;;;1040928;28;20082;-23
2023/03/17 01:24:27;;;;;;;24.45;6.30;;;;;;;;;;1042472;28;20459;-21
2023/03/17 01:24:57;;;;;;;12.43;6.22;;;;;;;;;;1043188;28;20523;-21
2023/03/17 01:25:29;;;;;;;8.98;5.70;;;;;;;;;;1044043;28;20103;-21
2023/03/17 01:26:00;;;;;;;9.02;4.45;;;;;;;;;;1043096;28;20024;-21
2023/03/17 01:26:31;;;;;;;14.18;8.13;;;;;;;;;;1042682;28;20028;-21
2023/03/17 01:27:01;;;;;;;14.70;5.63;;;;;;;;;;1042715;28;20021;-21
2023/03/17 01:27:35;;;;;;;6.88;4.60;;;;;;;;;;1042032;28;20482;-21
2023/03/17 01:28:06;;;;;;;8.38;4.82;;;;;;;;;;1042423;28;20061;-21
2023/03/17 01:28:37;;;;;;;12.77;6.25;;;;;;;;;;1043097;28;20078;-23
2023/03/17 01:29:07;;;;;;;12.30;5.60;;;;;;;;;;1043222;28;20453;-24
2023/03/17 01:29:38;;;;;;;14.80;5.93;;;;;;;;;;1041269;28;20439;-24
2023/03/17 01:30:29;;;;;;;12.32;3.95;;;;;;;;;;1041820;28;20021;-21
2023/03/17 01:30:59;;;;;;;11.30;5.78;;;;;;;;;;1038862;28;20037;-22
2023/03/17 01:31:30;;;;;;;17.67;6.53;;;;;;;;;;1040062;28;20376;-22
2023/03/17 01:32:01;;;;;;;9.20;6.05;;;;;;;;;;1040357;28;20102;-21
2023/03/17 01:32:31;;;;;;;8.77;4.93;;;;;;;;;;1042334;28;20123;-22
2023/03/17 01:33:02;;;;;;;19.63;4.93;;;;;;;;;;1042807;28;20481;-21
2023/03/17 01:33:32;;;;;;;20.42;5.28;;;;;;;;;;1041363;28;20119;-21
2023/03/17 01:34:04;;;;;;;9.15;5.88;;;;;;;;;;1042919;28;20025;-22
2023/03/17 01:34:35;;;;;;;13.35;6.03;;;;;;;;;;1042235;28;20020;-22
2023/03/17 01:35:06;;;;;;;13.27;4.57;;;;;;;;;;1043737;28;20029;-21
2023/03/17 01:35:37;;;;;;;13.85;6.22;;;;;;;;;;1043112;28;20021;-21
2023/03/17 01:36:09;;;;;;;10.73;5.65;;;;;;;;;;1042243;28;20516;-21
2023/03/17 01:36:40;;;;;;;12.90;6.03;;;;;;;;;;1040012;28;20025;-22
2023/03/17 01:37:10;;;;;;;9.25;6.28;;;;;;;;;;1042071;28;20029;-21
2023/03/17 01:37:41;;;;;;;12.20;5.40;;;;;;;;;;1040824;28;20087;-22
2023/03/17 01:38:12;;;;;;;6.50;3.83;;;;;;;;;;1038478;28;20164;-25
2023/03/17 01:38:42;;;;;;;6.15;4.20;;;;;;;;;;1040286;28;20459;-22
2023/03/17 01:39:13;;;;;;;5.20;4.07;;;;;;;;;;1040899;28;20025;-23
2023/03/17 01:39:44;;;;;;;8.93;5.00;;;;;;;;;;1041664;28;20021;-22
2023/03/17 01:40:16;;;;;;;17.33;5.88;;;;;;;;;;1041015;28;20028;-22
2023/03/17 01:40:49;;;;;;;11.32;3.90;;;;;;;;;;1043178;28;20111;-22
2023/03/17 01:41:20;;;;;;;13.98;5.43;;;;;;;;;;1043135;28;20021;-22
2023/03/17 01:41:55;;;;;;;5.05;4.00;;;;;;;;;;1041038;28;20025;-22
2023/03/17 01:42:27;;;;;;;6.63;4.93;;;;;;;;;;1041138;28;20501;-22
2023/03/17 01:43:09;;;;;;;6.25;4.95;;;;;;;;;;1041089;28;20653;-22
2023/03/17 01:43:40;;;;;;;5.47;4.38;;;;;;;;;;1042825;28;20028;-22
2023/03/17 01:44:17;;;;;;;8.25;4.80;;;;;;;;;;1042222;28;20115;-22
2023/03/17 01:44:57;;;;;;;8.73;4.97;;;;;;;;;;1040221;28;20135;-22
2023/03/17 01:45:46;;;;;;;15.48;3.97;;;;;;;;;;1037757;28;20447;-23
2023/03/17 01:46:33;;;;;;;7.07;5.03;;;;;;;;;;1041197;28;20037;-22
2023/03/17 01:47:05;;;;;;;11.07;4.07;;;;;;;;;;1040015;28;20021;-22
2023/03/17 01:47:36;;;;;;;30.27;7.57;;;;;;;;;;1041171;28;20119;-22
2023/03/17 01:48:07;;;;;;;9.63;5.78;;;;;;;;;;1039710;28;20599;-22
2023/03/17 01:48:41;;;;;;;10.15;6.10;;;;;;;;;;1041290;28;20122;-22
2023/03/17 01:49:18;;;;;;;13.77;4.57;;;;;;;;;;1040456;28;20527;-22
2023/03/17 01:49:49;;;;;;;9.50;6.07;;;;;;;;;;1039377;28;20060;-22
2023/03/17 01:50:20;;;;;;;11.35;5.82;;;;;;;;;;1038627;28;20041;-23
2023/03/17 01:50:51;;;;;;;7.70;5.68;;;;;;;;;;1041180;28;20025;-21
2023/03/17 01:51:42;;;;;;;13.13;5.90;;;;;;;;;;1038809;28;20052;-21
2023/03/17 01:52:14;;;;;;;8.35;4.00;;;;;;;;;;1038294;28;20037;-24
2023/03/17 01:52:44;;;;;;;9.52;5.88;;;;;;;;;;1039831;28;20576;-20
2023/03/17 01:53:16;;;;;;;6.63;4.30;;;;;;;;;;1041242;28;20029;-22
2023/03/17 01:53:48;;;;;;;16.00;4.45;;;;;;;;;;1041490;28;20887;-21
2023/03/17 01:54:22;;;;;;;8.00;4.60;;;;;;;;;;1041581;28;20556;-21
2023/03/17 01:54:55;;;;;;;6.88;3.50;;;;;;;;;;1041788;28;20053;-22
2023/03/17 01:55:25;;;;;;;8.52;4.95;;;;;;;;;;1041481;28;20508;-22
2023/03/17 01:55:56;;;;;;;10.88;4.85;;;;;;;;;;1040931;28;20024;-22
2023/03/17 01:56:29;;;;;;;10.73;5.10;;;;;;;;;;1039425;28;20533;-22
2023/03/17 01:57:25;;;;;;;20.33;5.65;;;;;;;;;;1041494;28;20029;-21
2023/03/17 01:57:56;;;;;;;12.00;5.88;;;;;;;;;;1038218;28;20056;-22
2023/03/17 01:58:28;;;;;;;13.18;5.60;;;;;;;;;;1038250;28;20505;-21
2023/03/17 01:59:00;;;;;;;7.20;5.38;;;;;;;;;;1042687;28;20064;-21
2023/03/17 01:59:33;;;;;;;13.50;4.95;;;;;;;;;;1040828;28;20025;-22
2023/03/17 02:00:07;;;;;;;11.10;6.35;;;;;;;;;;1042321;28;20025;-22
2023/03/17 02:00:38;;;;;;;16.65;6.80;;;;;;;;;;1040936;28;20471;-23
2023/03/17 02:01:09;;;;;;;19.08;5.55;;;;;;;;;;1042274;28;20945;-23
2023/03/17 02:01:42;;;;;;;10.73;5.53;;;;;;;;;;1041681;28;20281;-23
2023/03/17 02:02:14;;;;;;;19.48;5.55;;;;;;;;;;1042348;28;20025;-23
2023/03/17 02:02:47;;;;;;;13.20;5.90;;;;;;;;;;1039895;28;20136;-23
2023/03/17 02:03:18;;;;;;;8.02;4.20;;;;;;;;;;1040746;28;20033;-23
2023/03/17 02:03:50;;;;;;;12.73;6.22;;;;;;;;;;1042048;28;20110;-23
2023/03/17 02:04:21;;;;;;;6.65;4.32;;;;;;;;;;1041792;28;20114;-23
2023/03/17 02:04:52;;;;;;;11.73;5.43;;;;;;;;;;1036822;28;20025;-23
2023/03/17 02:05:28;;;;;;;16.58;5.90;;;;;;;;;;1029026;28;20026;-23
2023/03/17 02:06:00;;;;;;;13.27;6.72;;;;;;;;;;1031410;28;20038;-23
2023/03/17 02:06:31;;;;;;;8.70;3.63;;;;;;;;;;1034367;28;20957;-22
2023/03/17 02:07:03;;;;;;;9.90;4.45;;;;;;;;;;1038330;28;20021;-23
2023/03/17 02:07:34;;;;;;;15.45;5.15;;;;;;;;;;1039925;28;20431;-22
2023/03/17 02:08:10;;;;;;;15.15;6.53;;;;;;;;;;1040801;28;20520;-22
2023/03/17 02:08:40;;;;;;;13.90;4.75;;;;;;;;;;1040191;28;20048;-24
2023/03/17 02:09:11;;;;;;;22.42;7.13;;;;;;;;;;1041006;28;20030;-22
2023/03/17 02:09:41;;;;;;;15.90;3.95;;;;;;;;;;1039632;28;20142;-22
2023/03/17 02:10:13;;;;;;;12.35;6.32;;;;;;;;;;1040608;28;20480;-22
2023/03/17 02:10:44;;;;;;;11.95;4.85;;;;;;;;;;1041360;28;20029;-22
2023/03/17 02:11:16;;;;;;;9.70;4.63;;;;;;;;;;1040294;28;20021;-27
2023/03/17 02:11:47;;;;;;;17.40;6.00;;;;;;;;;;1038864;28;20120;-22
2023/03/17 02:12:19;;;;;;;12.85;6.22;;;;;;;;;;1039574;28;20385;-21
2023/03/17 02:12:54;;;;;;;10.88;5.55;;;;;;;;;;1039329;28;20195;-22
2023/03/17 02:13:25;;;;;;;10.35;6.25;;;;;;;;;;1040663;28;20096;-22
2023/03/17 02:13:56;;;;;;;16.75;6.45;;;;;;;;;;1041725;28;20614;-22
2023/03/17 02:14:27;;;;;;;17.60;9.10;;;;;;;;;;1041592;28;20033;-22
2023/03/17 02:14:58;;;;;;;13.20;6.80;;;;;;;;;;1041075;28;20095;-21
2023/03/17 02:15:39;;;;;;;10.60;6.63;;;;;;;;;;1040592;28;20029;-22
2023/03/17 02:16:16;;;;;;;17.15;5.00;;;;;;;;;;1039808;28;20032;-22
2023/03/17 02:16:47;;;;;;;15.25;7.07;;;;;;;;;;1040862;28;20116;-21
2023/03/17 02:17:18;;;;;;;10.18;6.55;;;;;;;;;;1040639;28;20025;-21
2023/03/17 02:17:49;;;;;;;10.40;4.45;;;;;;;;;;1039401;28;20539;-22
2023/03/17 02:18:21;;;;;;;13.57;5.50;;;;;;;;;;1038208;28;20037;-22
2023/03/17 02:18:52;;;;;;;10.65;5.78;;;;;;;;;;1039801;28;20035;-21
2023/03/17 02:19:22;;;;;;;12.57;4.68;;;;;;;;;;1040057;28;20116;-23
2023/03/17 02:19:54;;;;;;;12.65;4.55;;;;;;;;;;1039414;28;20059;-22
2023/03/17 02:20:26;;;;;;;16.52;7.30;;;;;;;;;;1040130;28;20116;-22
2023/03/17 02:20:56;;;;;;;10.48;5.38;;;;;;;;;;1041188;28;20064;-22
2023/03/17 02:21:29;;;;;;;16.70;5.43;;;;;;;;;;1041130;28;20476;-21
2023/03/17 02:22:03;;;;;;;13.75;7.53;;;;;;;;;;1037217;28;21098;-21
2023/03/17 02:22:33;;;;;;;10.98;5.88;;;;;;;;;;1036867;28;20582;-21
2023/03/17 02:23:06;;;;;;;12.55;5.40;;;;;;;;;;1040858;28;20029;-22
2023/03/17 02:23:37;;;;;;;11.65;5.72;;;;;;;;;;1040011;28;20021;-22
2023/03/17 02:24:11;;;;;;;13.15;5.88;;;;;;;;;;1042664;28;20029;-22
2023/03/17 02:24:44;;;;;;;14.55;5.43;;;;;;;;;;1040719;28;20565;-22
2023/03/17 02:25:18;;;;;;;17.55;7.10;;;;;;;;;;1041060;28;20404;-21
2023/03/17 02:25:50;;;;;;;13.80;6.45;;;;;;;;;;1041298;28;20469;-22
2023/03/17 02:26:22;;;;;;;18.20;5.93;;;;;;;;;;1040323;28;20025;-23
2023/03/17 02:26:55;;;;;;;18.08;4.28;;;;;;;;;;1041875;28;20032;-23
2023/03/17 02:27:34;;;;;;;16.05;6.90;;;;;;;;;;1041680;28;20059;-22
2023/03/17 02:28:26;;;;;;;10.73;5.53;;;;;;;;;;1037953;28;20032;-22
2023/03/17 02:28:59;;;;;;;17.65;4.53;;;;;;;;;;1040541;28;20039;-23
2023/03/17 02:29:31;;;;;;;10.43;6.18;;;;;;;;;;1041361;28;20029;-22
2023/03/17 02:30:02;;;;;;;13.80;5.90;;;;;;;;;;1041834;28;20119;-21
2023/03/17 02:30:35;;;;;;;9.55;4.80;;;;;;;;;;1041775;28;20043;-23
2023/03/17 02:31:07;;;;;;;12.13;5.07;;;;;;;;;;1042021;28;20415;-22
2023/03/17 02:31:40;;;;;;;14.45;5.82;;;;;;;;;;1038200;28;20016;-23
2023/03/17 02:32:12;;;;;;;17.52;5.63;;;;;;;;;;1041356;28;20069;-23
2023/03/17 02:32:43;;;;;;;19.23;6.18;;;;;;;;;;1040602;28;20496;-23
2023/03/17 02:33:13;;;;;;;7.65;5.38;;;;;;;;;;1043275;28;20035;-24
2023/03/17 02:33:43;;;;;;;17.98;7.88;;;;;;;;;;1041006;28;20481;-20
2023/03/17 02:34:14;;;;;;;14.30;6.95;;;;;;;;;;1042123;28;20111;-22
2023/03/17 02:34:45;;;;;;;10.98;6.43;;;;;;;;;;1039982;28;21089;-22
2023/03/17 02:35:17;;;;;;;12.70;6.97;;;;;;;;;;1041776;28;20037;-23
2023/03/17 02:35:48;;;;;;;11.25;5.65;;;;;;;;;;1040467;28;20168;-22
2023/03/17 02:36:19;;;;;;;9.30;5.93;;;;;;;;;;1040905;28;20032;-22
2023/03/17 02:36:49;;;;;;;10.43;6.30;;;;;;;;;;1039399;28;20026;-22
2023/03/17 02:37:20;;;;;;;9.00;5.18;;;;;;;;;;1041804;28;20025;-23
2023/03/17 02:37:52;;;;;;;17.52;5.85;;;;;;;;;;1042017;28;20064;-22
2023/03/17 02:38:22;;;;;;;12.65;5.13;;;;;;;;;;1040532;28;20538;-23
2023/03/17 02:38:53;;;;;;;19.38;8.07;;;;;;;;;;1038845;28;20032;-22
2023/03/17 02:39:24;;;;;;;16.45;6.40;;;;;;;;;;1040846;28;20757;-22
2023/03/17 02:39:54;;;;;;;20.45;9.43;;;;;;;;;;1041457;28;20117;-23
2023/03/17 02:40:25;;;;;;;11.95;6.72;;;;;;;;;;1041323;28;20131;-23
2023/03/17 02:40:55;;;;;;;19.80;7.55;;;;;;;;;;1040389;28;20028;-23
2023/03/17 02:41:26;;;;;;;12.20;6.80;;;;;;;;;;1040997;28;20384;-21
2023/03/17 02:41:57;;;;;;;49.72;7.53;;;;;;;;;;1041482;28;20030;-23
2023/03/17 02:42:28;;;;;;;9.95;5.18;;;;;;;;;;1041991;28;20508;-22
2023/03/17 02:42:59;;;;;;;16.83;6.82;;;;;;;;;;1041856;28;20920;-23
2023/03/17 02:43:30;;;;;;;28.60;10.63;;;;;;;;;;1039433;28;20029;-27
2023/03/17 02:44:01;;;;;;;30.75;9.48;;;;;;;;;;1042573;28;20017;-23
2023/03/17 02:44:32;;;;;;;19.48;7.22;;;;;;;;;;1038689;28;20044;-23
2023/03/17 02:45:03;;;;;;;19.10;8.90;;;;;;;;;;1040667;28;20039;-22
2023/03/17 02:45:34;;;;;;;23.17;7.55;;;;;;;;;;1040663;28;20106;-23
2023/03/17 02:46:04;;;;;;;26.13;7.90;;;;;;;;;;1040196;28;20086;-23
2023/03/17 02:46:35;;;;;;;32.55;9.40;;;;;;;;;;1038403;28;20025;-23
2023/03/17 02:47:06;;;;;;;19.90;6.97;;;;;;;;;;1039395;28;20033;-24
2023/03/17 02:47:37;;;;;;;20.90;8.15;;;;;;;;;;1039351;28;20487;-22
2023/03/17 02:48:08;;;;;;;12.15;7.72;;;;;;;;;;1038127;28;20037;-25
2023/03/17 02:48:38;;;;;;;25.25;7.93;;;;;;;;;;1040097;28;20531;-22
2023/03/17 02:49:10;;;;;;;17.88;7.60;;;;;;;;;;1040865;28;20456;-24
2023/03/17 02:49:41;;;;;;;12.30;5.95;;;;;;;;;;1039447;28;20037;-21
2023/03/17 02:50:21;;;;;;;20.92;9.95;;;;;;;;;;1040510;28;20025;-22
2023/03/17 02:50:51;;;;;;;14.45;8.43;;;;;;;;;;1040210;28;20045;-23
2023/03/17 02:51:22;;;;;;;10.95;5.53;;;;;;;;;;1038684;28;20031;-23
2023/03/17 02:51:52;;;;;;;14.73;7.07;;;;;;;;;;1039192;28;20033;-22
2023/03/17 02:52:23;;;;;;;17.40;7.53;;;;;;;;;;1037915;28;20786;-22
2023/03/17 02:52:54;;;;;;;16.98;9.20;;;;;;;;;;1035166;28;20509;-24
2023/03/17 02:53:25;;;;;;;17.92;6.75;;;;;;;;;;1034153;28;20044;-22
2023/03/17 02:53:56;;;;;;;12.70;7.32;;;;;;;;;;1039221;28;20497;-22
2023/03/17 02:54:26;;;;;;;15.55;7.97;;;;;;;;;;1038647;28;20622;-21
2023/03/17 02:54:57;;;;;;;13.15;5.65;;;;;;;;;;1039225;28;20087;-24
2023/03/17 02:55:28;;;;;;;17.77;8.30;;;;;;;;;;1039260;28;20510;-22
2023/03/17 02:55:59;;;;;;;20.25;7.20;;;;;;;;;;1041126;28;20468;-21
2023/03/17 02:56:30;;;;;;;23.40;8.20;;;;;;;;;;1040098;28;20029;-22
2023/03/17 02:57:01;;;;;;;16.42;9.55;;;;;;;;;;1038398;28;20033;-22
2023/03/17 02:57:31;;;;;;;37.40;11.23;;;;;;;;;;1039018;28;20029;-23
2023/03/17 02:58:04;;;;;;;24.92;8.98;;;;;;;;;;1038925;28;20071;-22
2023/03/17 02:58:40;;;;;;;20.88;7.38;;;;;;;;;;1038999;28;20025;-22
2023/03/17 02:59:17;;;;;;;16.08;7.80;;;;;;;;;;1034129;28;20040;-24
2023/03/17 02:59:50;;;;;;;22.05;6.97;;;;;;;;;;1032895;28;20117;-21
2023/03/17 03:00:20;;;;;;;14.52;6.75;;;;;;;;;;1035084;28;20044;-21
2023/03/17 03:00:53;;;;;;;31.17;8.55;;;;;;;;;;1037337;28;20021;-22
2023/03/17 03:01:25;;;;;;;18.35;8.73;;;;;;;;;;1037316;28;20088;-22
2023/03/17 03:01:56;;;;;;;17.50;7.88;;;;;;;;;;1039721;28;20033;-22
2023/03/17 03:02:26;;;;;;;16.73;8.80;;;;;;;;;;1039018;28;20847;-22
2023/03/17 03:02:57;;;;;;;23.33;6.18;;;;;;;;;;1039867;28;20108;-21
2023/03/17 03:03:29;;;;;;;13.93;7.20;;;;;;;;;;1040810;28;20032;-22
2023/03/17 03:04:01;;;;;;;13.30;6.70;;;;;;;;;;1038406;28;20142;-23
2023/03/17 03:04:33;;;;;;;14.48;6.72;;;;;;;;;;1040816;28;20512;-22
2023/03/17 03:05:07;;;;;;;14.07;7.78;;;;;;;;;;1041682;28;20029;-25
2023/03/17 03:05:44;;;;;;;17.90;6.80;;;;;;;;;;1038059;28;20029;-24
2023/03/17 03:06:18;;;;;;;11.25;5.20;;;;;;;;;;1032128;28;20647;-24
2023/03/17 03:06:50;;;;;;;13.43;7.05;;;;;;;;;;1033509;28;20030;-24
2023/03/17 03:07:22;;;;;;;12.30;5.63;;;;;;;;;;1033072;28;20062;-22
2023/03/17 03:07:54;;;;;;;13.00;5.38;;;;;;;;;;1037559;28;20079;-23
2023/03/17 03:08:26;;;;;;;13.25;4.90;;;;;;;;;;1038898;28;20473;-22
2023/03/17 03:08:57;;;;;;;7.28;3.83;;;;;;;;;;1040210;28;20040;-22
2023/03/17 03:09:29;;;;;;;11.85;4.80;;;;;;;;;;1035636;28;20029;-22
2023/03/17 03:10:01;;;;;;;10.27;5.10;;;;;;;;;;1038282;28;20147;-23
2023/03/17 03:10:33;;;;;;;9.18;4.82;;;;;;;;;;1037163;28;20120;-24